createdAt,value
2022-12-01T00:01:37.594Z,14.17
2022-12-01T00:04:05.789Z,15.10
2022-12-01T00:06:35.456Z,14.37
2022-12-01T00:09:20.684Z,13.60
2022-12-01T00:11:49.427Z,13.90
2022-12-01T00:14:17.443Z,13.07
2022-12-01T00:16:46.511Z,13.23
2022-12-01T00:19:14.334Z,12.50
2022-12-01T00:21:43.754Z,12.33
2022-12-01T00:24:13.339Z,11.17
2022-12-01T00:26:41.555Z,10.73
2022-12-01T00:29:10.059Z,11.70
2022-12-01T00:31:38.459Z,10.53
2022-12-01T00:34:10.967Z,10.00
2022-12-01T00:36:39.993Z,9.97
2022-12-01T00:39:09.873Z,10.37
2022-12-01T00:41:38.157Z,9.97
2022-12-01T00:44:06.625Z,9.77
2022-12-01T00:46:34.828Z,10.27
2022-12-01T00:49:02.651Z,9.07
2022-12-01T00:51:30.817Z,9.67
2022-12-01T00:53:59.142Z,9.70
2022-12-01T00:56:28.762Z,9.10
2022-12-01T00:58:57.851Z,8.90
2022-12-01T01:01:25.870Z,9.47
2022-12-01T01:03:54.628Z,9.73
2022-12-01T01:06:23.786Z,9.60
2022-12-01T01:08:51.750Z,10.50
2022-12-01T01:11:19.751Z,9.00
2022-12-01T01:13:51.122Z,8.87
2022-12-01T01:16:21.373Z,10.20
2022-12-01T01:18:52.095Z,9.20
2022-12-01T01:21:23.183Z,9.47
2022-12-01T01:23:52.846Z,9.13
2022-12-01T01:26:24.137Z,10.33
2022-12-01T01:28:54.194Z,9.40
2022-12-01T01:31:25.417Z,9.07
2022-12-01T01:33:55.709Z,9.40
2022-12-01T01:36:23.569Z,9.57
2022-12-01T01:38:52.255Z,8.87
2022-12-01T01:41:20.797Z,9.43
2022-12-01T01:43:50.855Z,9.87
2022-12-01T01:46:22.490Z,10.03
2022-12-01T01:48:53.324Z,10.90
2022-12-01T01:51:25.653Z,10.70
2022-12-01T01:53:57.650Z,10.30
2022-12-01T01:56:25.707Z,10.73
2022-12-01T01:58:54.391Z,11.50
2022-12-01T02:01:23.808Z,11.13
2022-12-01T02:03:54.979Z,11.10
2022-12-01T02:06:24.699Z,11.67
2022-12-01T02:08:52.967Z,11.97
2022-12-01T02:11:57.930Z,10.83
2022-12-01T02:14:53.712Z,11.37
2022-12-01T02:17:36.323Z,10.67
2022-12-01T02:20:41.554Z,10.83
2022-12-01T02:23:45.338Z,11.37
2022-12-01T02:26:35.129Z,11.20
2022-12-01T02:29:48.372Z,11.53
2022-12-01T02:32:24.403Z,10.97
2022-12-01T02:34:57.812Z,11.03
2022-12-01T02:37:32.994Z,11.87
2022-12-01T02:40:07.485Z,11.30
2022-12-01T02:42:54.233Z,11.63
2022-12-01T02:45:29.757Z,12.60
2022-12-01T02:48:03.302Z,11.97
2022-12-01T02:50:35.491Z,12.27
2022-12-01T02:53:05.127Z,12.07
2022-12-01T02:55:33.370Z,12.73
2022-12-01T02:58:02.359Z,12.70
2022-12-01T03:00:31.595Z,13.40
2022-12-01T03:03:31.863Z,12.63
2022-12-01T03:06:08.684Z,12.50
2022-12-01T03:08:46.161Z,12.10
2022-12-01T03:11:28.123Z,13.70
2022-12-01T03:14:09.973Z,14.43
2022-12-01T03:16:49.224Z,13.07
2022-12-01T03:19:25.510Z,12.97
2022-12-01T03:21:58.210Z,13.77
2022-12-01T03:24:29.457Z,14.30
2022-12-01T03:26:59.653Z,14.10
2022-12-01T03:29:31.780Z,12.67
2022-12-01T03:32:04.713Z,12.87
2022-12-01T03:34:38.887Z,13.10
2022-12-01T03:37:11.451Z,13.37
2022-12-01T03:39:41.317Z,12.93
2022-12-01T03:42:15.503Z,13.23
2022-12-01T03:44:49.452Z,13.50
2022-12-01T03:47:20.810Z,13.53
2022-12-01T03:49:53.605Z,13.00
2022-12-01T03:52:40.633Z,12.80
2022-12-01T03:55:14.212Z,14.17
2022-12-01T03:57:47.297Z,12.77
2022-12-01T04:00:17.426Z,14.67
2022-12-01T04:02:46.192Z,14.20
2022-12-01T04:05:18.914Z,14.53
2022-12-01T04:07:49.094Z,14.50
2022-12-01T04:10:18.615Z,14.17
2022-12-01T04:12:45.389Z,15.27
2022-12-01T04:15:15.295Z,14.67
2022-12-01T04:17:45.359Z,14.90
2022-12-01T04:20:17.287Z,14.33
2022-12-01T04:22:46.048Z,14.40
2022-12-01T04:25:13.940Z,13.47
2022-12-01T04:27:42.294Z,14.70
2022-12-01T04:30:10.968Z,15.60
2022-12-01T04:32:40.376Z,14.20
2022-12-01T04:35:10.206Z,13.83
2022-12-01T04:37:39.813Z,12.70
2022-12-01T04:40:10.391Z,13.13
2022-12-01T04:42:38.345Z,14.27
2022-12-01T04:45:07.094Z,14.63
2022-12-01T04:47:34.845Z,14.40
2022-12-01T04:50:02.750Z,15.23
2022-12-01T04:52:35.189Z,16.17
2022-12-01T04:55:05.074Z,16.17
2022-12-01T04:57:32.898Z,16.10
2022-12-01T05:00:01.567Z,16.40
2022-12-01T05:02:30.030Z,15.60
2022-12-01T05:04:58.213Z,15.87
2022-12-01T05:07:26.102Z,16.90
2022-12-01T05:09:55.201Z,16.20
2022-12-01T05:12:25.128Z,16.13
2022-12-01T05:14:53.108Z,16.67
2022-12-01T05:17:21.048Z,16.77
2022-12-01T05:20:06.444Z,15.70
2022-12-01T05:23:03.712Z,17.83
2022-12-01T05:25:22.544Z,17.83
2022-12-01T05:27:51.993Z,19.37
2022-12-01T05:30:25.649Z,17.70
2022-12-01T05:32:56.658Z,17.87
2022-12-01T05:35:24.540Z,15.80
2022-12-01T05:37:52.405Z,17.90
2022-12-01T05:40:20.395Z,19.87
2022-12-01T05:42:49.687Z,18.53
2022-12-01T05:45:19.223Z,19.60
2022-12-01T05:47:47.385Z,20.77
2022-12-01T05:50:15.987Z,21.40
2022-12-01T05:52:45.179Z,22.13
2022-12-01T05:55:13.308Z,23.97
2022-12-01T05:57:41.323Z,22.60
2022-12-01T06:00:11.358Z,23.40
2022-12-01T06:02:41.367Z,25.57
2022-12-01T06:05:10.138Z,26.00
2022-12-01T06:07:40.399Z,26.23
2022-12-01T06:10:10.319Z,25.40
2022-12-01T06:12:38.948Z,25.50
2022-12-01T06:15:08.814Z,24.27
2022-12-01T06:17:40.146Z,26.00
2022-12-01T06:20:12.592Z,25.10
2022-12-01T06:22:41.811Z,24.40
2022-12-01T06:25:11.009Z,24.83
2022-12-01T06:27:39.881Z,26.53
2022-12-01T06:30:09.462Z,24.27
2022-12-01T06:32:37.375Z,24.00
2022-12-01T06:35:05.762Z,25.40
2022-12-01T06:37:35.048Z,25.33
2022-12-01T06:40:03.342Z,24.10
2022-12-01T06:42:32.387Z,22.97
2022-12-01T06:45:00.295Z,23.53
2022-12-01T06:47:28.393Z,23.50
2022-12-01T06:49:56.120Z,25.17
2022-12-01T06:52:23.870Z,25.83
2022-12-01T06:54:53.602Z,26.07
2022-12-01T06:57:21.729Z,26.83
2022-12-01T06:59:50.181Z,27.00
2022-12-01T07:02:18.934Z,25.00
2022-12-01T07:04:47.037Z,25.93
2022-12-01T07:07:15.046Z,23.90
2022-12-01T07:09:42.920Z,25.80
2022-12-01T07:12:12.239Z,24.70
2022-12-01T07:14:42.639Z,26.00
2022-12-01T07:17:10.827Z,24.53
2022-12-01T07:19:38.745Z,25.70
2022-12-01T07:22:06.649Z,25.33
2022-12-01T07:24:35.233Z,25.67
2022-12-01T07:27:03.072Z,25.30
2022-12-01T07:29:32.308Z,26.13
2022-12-01T07:32:00.348Z,24.60
2022-12-01T07:34:28.210Z,24.40
2022-12-01T07:36:57.508Z,24.73
2022-12-01T07:39:25.386Z,25.37
2022-12-01T07:41:53.252Z,25.87
2022-12-01T07:44:22.316Z,24.47
2022-12-01T07:46:52.424Z,24.87
2022-12-01T07:49:20.511Z,26.10
2022-12-01T07:51:49.008Z,25.20
2022-12-01T07:54:20.344Z,25.63
2022-12-01T07:56:48.149Z,24.30
2022-12-01T07:59:16.380Z,25.90
2022-12-01T08:01:45.282Z,24.00
2022-12-01T08:04:14.780Z,24.70
2022-12-01T08:06:43.476Z,25.43
2022-12-01T08:09:11.379Z,25.30
2022-12-01T08:11:40.134Z,25.00
2022-12-01T08:14:08.159Z,25.07
2022-12-01T08:16:36.040Z,24.83
2022-12-01T08:19:03.816Z,25.03
2022-12-01T08:21:33.478Z,24.77
2022-12-01T08:24:01.657Z,25.13
2022-12-01T08:26:29.586Z,24.37
2022-12-01T08:28:59.119Z,22.87
2022-12-01T08:31:29.208Z,25.07
2022-12-01T08:33:57.592Z,24.53
2022-12-01T08:36:26.617Z,24.30
2022-12-01T08:38:56.898Z,24.30
2022-12-01T08:41:25.521Z,23.47
2022-12-01T08:43:58.830Z,24.80
2022-12-01T08:46:28.963Z,23.23
2022-12-01T08:48:57.649Z,25.40
2022-12-01T08:51:26.455Z,23.93
2022-12-01T08:53:57.062Z,24.63
2022-12-01T08:56:28.582Z,22.87
2022-12-01T08:58:58.069Z,24.47
2022-12-01T09:01:26.811Z,23.67
2022-12-01T09:04:05.891Z,22.87
2022-12-01T09:06:35.981Z,21.83
2022-12-01T09:09:05.502Z,22.50
2022-12-01T09:11:33.710Z,22.83
2022-12-01T09:14:01.567Z,22.97
2022-12-01T09:16:29.731Z,22.17
2022-12-01T09:18:57.757Z,23.20
2022-12-01T09:21:27.337Z,22.33
2022-12-01T09:23:56.010Z,23.60
2022-12-01T09:26:26.489Z,21.77
2022-12-01T09:28:56.338Z,21.70
2022-12-01T09:31:25.300Z,21.37
2022-12-01T09:33:56.658Z,23.37
2022-12-01T09:36:25.331Z,22.13
2022-12-01T09:38:53.397Z,22.57
2022-12-01T09:41:24.725Z,21.93
2022-12-01T09:44:00.461Z,21.67
2022-12-01T09:46:34.052Z,21.57
2022-12-01T09:49:04.429Z,22.60
2022-12-01T09:51:36.382Z,22.27
2022-12-01T09:54:05.481Z,20.87
2022-12-01T09:56:40.757Z,22.90
2022-12-01T09:59:18.920Z,21.90
2022-12-01T10:01:51.167Z,21.57
2022-12-01T10:04:23.516Z,20.90
2022-12-01T10:06:56.982Z,21.03
2022-12-01T10:09:30.828Z,20.87
2022-12-01T10:12:03.483Z,20.50
2022-12-01T10:14:35.257Z,20.07
2022-12-01T10:17:12.202Z,21.47
2022-12-01T10:19:46.496Z,21.67
2022-12-01T10:22:28.898Z,20.67
2022-12-01T10:25:06.909Z,20.60
2022-12-01T10:27:45.348Z,20.60
2022-12-01T10:30:19.065Z,20.40
2022-12-01T10:32:53.295Z,20.43
2022-12-01T10:35:24.899Z,20.20
2022-12-01T10:37:59.200Z,19.33
2022-12-01T10:40:30.736Z,20.67
2022-12-01T10:42:58.493Z,20.87
2022-12-01T10:45:32.274Z,19.00
2022-12-01T10:48:13.337Z,19.60
2022-12-01T10:50:42.749Z,18.80
2022-12-01T10:53:27.383Z,19.03
2022-12-01T10:56:04.146Z,19.23
2022-12-01T10:58:35.093Z,19.90
2022-12-01T11:01:06.855Z,18.33
2022-12-01T11:03:37.009Z,18.33
2022-12-01T11:06:08.843Z,18.27
2022-12-01T11:08:42.115Z,17.53
2022-12-01T11:11:26.418Z,17.17
2022-12-01T11:13:55.984Z,17.27
2022-12-01T11:16:42.579Z,15.27
2022-12-01T11:19:26.991Z,17.33
2022-12-01T11:21:58.804Z,15.77
2022-12-01T11:24:31.685Z,14.43
2022-12-01T11:27:01.133Z,16.03
2022-12-01T11:29:36.183Z,15.70
2022-12-01T11:32:19.903Z,14.20
2022-12-01T11:34:52.845Z,15.17
2022-12-01T11:37:23.325Z,15.53
2022-12-01T11:39:53.019Z,14.77
2022-12-01T11:42:25.882Z,15.10
2022-12-01T11:44:56.788Z,16.43
2022-12-01T11:47:27.862Z,15.40
2022-12-01T11:49:57.868Z,16.60
2022-12-01T11:52:30.302Z,16.57
2022-12-01T11:55:05.546Z,16.53
2022-12-01T11:57:40.161Z,16.47
2022-12-01T12:00:16.525Z,16.03
2022-12-01T12:03:00.234Z,16.33
2022-12-01T12:05:40.778Z,17.80
2022-12-01T12:08:19.287Z,18.03
2022-12-01T12:10:57.183Z,17.97
2022-12-01T12:13:46.683Z,17.93
2022-12-01T12:16:21.686Z,17.17
2022-12-01T12:19:07.423Z,17.97
2022-12-01T12:21:43.250Z,17.87
2022-12-01T12:24:29.251Z,17.57
2022-12-01T12:27:06.078Z,17.17
2022-12-01T12:29:53.319Z,17.13
2022-12-01T12:32:36.165Z,17.27
2022-12-01T12:35:18.131Z,17.97
2022-12-01T12:38:02.000Z,16.83
2022-12-01T12:40:40.904Z,16.97
2022-12-01T12:43:22.770Z,17.13
2022-12-01T12:46:05.095Z,15.07
2022-12-01T12:49:12.072Z,17.43
2022-12-01T12:51:42.691Z,15.90
2022-12-01T12:54:20.766Z,15.20
2022-12-01T12:56:53.555Z,16.10
2022-12-01T12:59:25.414Z,16.93
2022-12-01T13:01:59.830Z,15.77
2022-12-01T13:04:36.010Z,15.00
2022-12-01T13:07:09.921Z,16.30
2022-12-01T13:09:43.167Z,16.57
2022-12-01T13:12:17.619Z,15.40
2022-12-01T13:14:49.887Z,15.60
2022-12-01T13:17:21.306Z,15.37
2022-12-01T13:19:49.461Z,15.43
2022-12-01T13:22:23.046Z,15.73
2022-12-01T13:24:51.628Z,15.20
2022-12-01T13:27:23.715Z,16.77
2022-12-01T13:29:54.251Z,16.27
2022-12-01T13:32:33.551Z,16.57
2022-12-01T13:35:02.701Z,16.47
2022-12-01T13:37:35.638Z,16.80
2022-12-01T13:40:10.900Z,15.83
2022-12-01T13:42:39.907Z,16.40
2022-12-01T13:45:18.894Z,16.93
2022-12-01T13:47:54.951Z,16.90
2022-12-01T13:51:03.101Z,18.27
2022-12-01T13:53:37.071Z,16.63
2022-12-01T13:56:28.768Z,16.70
2022-12-01T13:58:57.424Z,17.43
2022-12-01T14:01:48.726Z,17.23
2022-12-01T14:04:34.868Z,17.77
2022-12-01T14:07:34.609Z,17.50
2022-12-01T14:10:27.591Z,19.10
2022-12-01T14:12:58.617Z,19.37
2022-12-01T14:15:42.802Z,18.67
2022-12-01T14:18:28.423Z,18.07
2022-12-01T14:20:56.772Z,18.93
2022-12-01T14:23:30.897Z,18.60
2022-12-01T14:26:06.480Z,17.10
2022-12-01T14:29:20.435Z,19.37
2022-12-01T14:32:25.605Z,18.70
2022-12-01T14:35:02.275Z,18.93
2022-12-01T14:37:41.183Z,18.50
2022-12-01T14:40:17.065Z,18.63
2022-12-01T14:43:08.858Z,18.73
2022-12-01T14:45:42.752Z,19.50
2022-12-01T14:48:14.691Z,19.90
2022-12-01T14:50:49.228Z,19.27
2022-12-01T14:53:23.039Z,20.50
2022-12-01T14:55:56.316Z,19.70
2022-12-01T14:58:29.444Z,19.47
2022-12-01T15:01:09.997Z,19.10
2022-12-01T15:03:42.059Z,17.63
2022-12-01T15:06:10.906Z,18.60
2022-12-01T15:08:43.715Z,20.67
2022-12-01T15:11:23.181Z,20.03
2022-12-01T15:13:54.830Z,20.17
2022-12-01T15:16:26.143Z,19.50
2022-12-01T15:18:54.022Z,18.80
2022-12-01T15:21:25.036Z,18.53
2022-12-01T15:23:58.693Z,18.70
2022-12-01T15:26:29.953Z,17.93
2022-12-01T15:29:25.269Z,18.03
2022-12-01T15:31:55.754Z,18.03
2022-12-01T15:34:26.143Z,17.33
2022-12-01T15:36:54.952Z,17.63
2022-12-01T15:39:31.451Z,18.47
2022-12-01T15:42:00.086Z,17.90
2022-12-01T15:44:32.809Z,18.03
2022-12-01T15:47:01.307Z,17.80
2022-12-01T15:49:33.235Z,16.13
2022-12-01T15:52:10.145Z,16.67
2022-12-01T15:54:39.882Z,16.73
2022-12-01T15:57:09.838Z,16.30
2022-12-01T15:59:42.399Z,15.93
2022-12-01T16:02:27.146Z,15.43
2022-12-01T16:05:03.026Z,15.37
2022-12-01T16:08:04.875Z,15.57
2022-12-01T16:10:31.523Z,15.63
2022-12-01T16:13:44.882Z,16.03
2022-12-01T16:16:45.116Z,18.07
2022-12-01T16:19:27.934Z,19.27
2022-12-01T16:21:59.260Z,16.93
2022-12-01T16:24:31.960Z,18.63
2022-12-01T16:27:02.925Z,18.23
2022-12-01T16:29:36.105Z,18.23
2022-12-01T16:32:20.722Z,18.57
2022-12-01T16:34:50.066Z,18.73
2022-12-01T16:37:18.097Z,17.40
2022-12-01T16:39:45.819Z,18.60
2022-12-01T16:42:16.577Z,18.37
2022-12-01T16:44:46.746Z,19.93
2022-12-01T16:47:18.672Z,19.07
2022-12-01T16:49:47.492Z,18.67
2022-12-01T16:52:42.950Z,18.67
2022-12-01T16:55:05.311Z,18.67
2022-12-01T16:57:33.171Z,18.87
2022-12-01T17:00:01.052Z,19.33
2022-12-01T17:02:30.652Z,19.50
2022-12-01T17:04:58.620Z,19.63
2022-12-01T17:07:26.415Z,18.20
2022-12-01T17:09:54.331Z,18.77
2022-12-01T17:12:25.297Z,17.57
2022-12-01T17:14:53.035Z,15.50
2022-12-01T17:17:21.338Z,14.30
2022-12-01T17:19:53.127Z,12.40
2022-12-01T17:22:21.739Z,12.70
2022-12-01T17:24:49.776Z,13.10
2022-12-01T17:27:17.975Z,12.77
2022-12-01T17:29:46.553Z,12.77
2022-12-01T17:32:14.971Z,13.10
2022-12-01T17:34:43.139Z,14.07
2022-12-01T17:37:17.502Z,15.50
2022-12-01T17:39:48.543Z,15.97
2022-12-01T17:42:16.937Z,15.93
2022-12-01T17:44:45.160Z,18.37
2022-12-01T17:47:13.753Z,17.13
2022-12-01T17:49:41.639Z,17.60
2022-12-01T17:52:09.773Z,18.60
2022-12-01T17:54:39.283Z,17.83
2022-12-01T17:57:08.238Z,18.97
2022-12-01T17:59:36.974Z,18.23
2022-12-01T18:02:06.002Z,17.43
2022-12-01T18:04:35.595Z,16.93
2022-12-01T18:07:03.577Z,18.57
2022-12-01T18:09:31.521Z,16.67
2022-12-01T18:12:02.055Z,17.17
2022-12-01T18:14:30.041Z,18.60
2022-12-01T18:16:57.830Z,19.07
2022-12-01T18:19:26.186Z,19.40
2022-12-01T18:21:53.946Z,18.03
2022-12-01T18:24:22.307Z,19.83
2022-12-01T18:26:50.425Z,18.33
2022-12-01T18:29:26.451Z,18.17
2022-12-01T18:31:56.243Z,17.23
2022-12-01T18:34:24.260Z,17.47
2022-12-01T18:36:55.100Z,17.27
2022-12-01T18:39:23.403Z,17.53
2022-12-01T18:41:51.583Z,18.27
2022-12-01T18:44:20.879Z,17.83
2022-12-01T18:46:48.919Z,15.77
2022-12-01T18:49:18.168Z,16.50
2022-12-01T18:51:47.308Z,14.60
2022-12-01T18:54:17.016Z,13.83
2022-12-01T18:56:45.092Z,14.10
2022-12-01T18:59:17.431Z,14.87
2022-12-01T19:01:48.719Z,13.60
2022-12-01T19:04:18.439Z,15.97
2022-12-01T19:06:48.065Z,14.73
2022-12-01T19:09:17.600Z,15.53
2022-12-01T19:11:46.028Z,15.70
2022-12-01T19:14:16.783Z,17.37
2022-12-01T19:16:48.389Z,16.30
2022-12-01T19:19:16.355Z,16.07
2022-12-01T19:21:45.198Z,15.47
2022-12-01T19:24:14.417Z,14.97
2022-12-01T19:26:42.534Z,14.57
2022-12-01T19:29:10.581Z,14.63
2022-12-01T19:31:40.047Z,12.60
2022-12-01T19:34:09.574Z,12.77
2022-12-01T19:36:37.539Z,12.77
2022-12-01T19:39:07.704Z,12.40
2022-12-01T19:41:35.988Z,11.77
2022-12-01T19:44:03.751Z,11.43
2022-12-01T19:46:32.476Z,10.73
2022-12-01T19:49:02.261Z,11.93
2022-12-01T19:51:35.212Z,10.93
2022-12-01T19:54:03.432Z,11.47
2022-12-01T19:56:31.780Z,10.40
2022-12-01T19:59:00.407Z,11.47
2022-12-01T20:01:29.254Z,12.40
2022-12-01T20:03:57.564Z,10.67
2022-12-01T20:06:28.122Z,12.10
2022-12-01T20:09:01.193Z,11.60
2022-12-01T20:11:32.773Z,12.40
2022-12-01T20:14:00.760Z,12.43
2022-12-01T20:16:30.615Z,12.47
2022-12-01T20:19:02.569Z,13.37
2022-12-01T20:21:32.765Z,15.70
2022-12-01T20:24:03.811Z,15.70
2022-12-01T20:26:33.649Z,17.47
2022-12-01T20:29:05.530Z,16.50
2022-12-01T20:31:34.975Z,17.47
2022-12-01T20:34:06.937Z,17.50
2022-12-01T20:36:35.177Z,18.37
2022-12-01T20:39:06.080Z,18.73
2022-12-01T20:41:34.087Z,19.43
2022-12-01T20:44:06.959Z,17.63
2022-12-01T20:46:35.739Z,19.40
2022-12-01T20:49:05.169Z,18.87
2022-12-01T20:51:33.624Z,17.97
2022-12-01T20:56:52.966Z,18.10
2022-12-01T20:59:20.752Z,18.27
2022-12-01T21:05:24.349Z,18.57
2022-12-01T21:07:52.370Z,17.53
2022-12-01T21:10:45.058Z,18.77
2022-12-01T21:13:36.826Z,17.80
2022-12-01T21:16:10.829Z,18.67
2022-12-01T21:18:48.724Z,18.57
2022-12-01T21:21:26.702Z,19.20
2022-12-01T21:24:14.548Z,18.70
2022-12-01T21:26:48.880Z,18.03
2022-12-01T21:29:24.863Z,18.90
2022-12-01T21:31:54.907Z,19.33
2022-12-01T21:37:26.703Z,19.73
2022-12-01T21:39:57.991Z,20.13
2022-12-01T21:42:28.264Z,19.93
2022-12-01T21:44:59.664Z,20.17
2022-12-01T21:47:31.003Z,21.00
2022-12-01T21:50:01.198Z,19.60
2022-12-01T21:52:33.636Z,20.67
2022-12-01T21:55:03.535Z,20.80
2022-12-01T21:57:43.039Z,21.63
2022-12-01T22:00:30.591Z,20.80
2022-12-01T22:03:17.662Z,21.03
2022-12-01T22:06:06.894Z,20.67
2022-12-01T22:08:37.250Z,21.50
2022-12-01T22:11:13.530Z,21.93
2022-12-01T22:13:44.242Z,21.60
2022-12-01T22:16:20.826Z,20.77
2022-12-01T22:18:51.709Z,22.80
2022-12-01T22:21:36.416Z,19.93
2022-12-01T22:24:23.076Z,21.80
2022-12-01T22:26:54.042Z,21.63
2022-12-01T22:29:30.093Z,20.83
2022-12-01T22:32:42.587Z,21.33
2022-12-01T22:35:38.151Z,20.83
2022-12-01T22:38:28.666Z,21.20
2022-12-01T22:41:00.125Z,21.57
2022-12-01T22:43:42.938Z,20.10
2022-12-01T22:46:26.195Z,21.73
2022-12-01T22:48:57.522Z,21.60
2022-12-01T22:51:31.190Z,20.70
2022-12-01T22:54:03.290Z,23.57
2022-12-01T22:56:34.738Z,21.17
2022-12-01T22:59:11.381Z,20.87
2022-12-01T23:01:47.863Z,22.00
2022-12-01T23:04:27.754Z,21.10
2022-12-01T23:07:01.350Z,21.37
2022-12-01T23:09:34.218Z,23.17
2022-12-01T23:12:14.998Z,22.30
2022-12-01T23:14:47.991Z,23.03
2022-12-01T23:17:21.518Z,21.90
2022-12-01T23:19:52.569Z,23.83
2022-12-01T23:22:21.237Z,22.37
2022-12-01T23:24:49.603Z,23.00
2022-12-01T23:27:19.067Z,23.80
2022-12-01T23:29:48.153Z,24.03
2022-12-01T23:32:15.874Z,22.50
2022-12-01T23:34:43.832Z,22.03
2022-12-01T23:37:30.124Z,23.10
2022-12-01T23:39:58.170Z,23.77
2022-12-01T23:42:26.020Z,23.60
2022-12-01T23:44:54.117Z,23.47
2022-12-01T23:47:26.116Z,23.57
2022-12-01T23:50:01.037Z,22.97
2022-12-01T23:52:35.596Z,23.07
2022-12-01T23:55:13.050Z,22.67
2022-12-01T23:57:40.798Z,23.17
